sensor_id;sensor_type;location;lat;lon;timestamp;pressure;altitude;pressure_sealevel;temperature;humidity
62942;BME280;49042;47.318;19.874;2024-02-23T00:00:56;99223.47;;;12.62;55.66
62942;BME280;49042;47.318;19.874;2024-02-23T00:03:58;99227.88;;;12.81;56.13
62942;BME280;49042;47.318;19.874;2024-02-23T00:07:00;99232.19;;;12.66;55.51
62942;BME280;49042;47.318;19.874;2024-02-23T00:10:04;99229.63;;;12.82;56.60
62942;BME280;49042;47.318;19.874;2024-02-23T00:13:06;99223.47;;;12.58;57.80
62942;BME280;49042;47.318;19.874;2024-02-23T00:16:08;99235.59;;;12.35;58.89
62942;BME280;49042;47.318;19.874;2024-02-23T00:19:10;99235.62;;;12.46;59.87
62942;BME280;49042;47.318;19.874;2024-02-23T00:22:12;99226.06;;;12.50;59.44
62942;BME280;49042;47.318;19.874;2024-02-23T00:25:14;99231.25;;;12.42;59.39
62942;BME280;49042;47.318;19.874;2024-02-23T00:28:16;99226.91;;;12.39;61.42
62942;BME280;49042;47.318;19.874;2024-02-23T00:31:18;99226.81;;;12.17;64.94
62942;BME280;49042;47.318;19.874;2024-02-23T00:34:19;99226.66;;;11.98;77.04
62942;BME280;49042;47.318;19.874;2024-02-23T00:37:21;99228.22;;;11.68;84.56
62942;BME280;49042;47.318;19.874;2024-02-23T00:40:23;99230.69;;;11.49;94.58
62942;BME280;49042;47.318;19.874;2024-02-23T00:43:25;99225.22;;;11.16;94.96
62942;BME280;49042;47.318;19.874;2024-02-23T00:46:26;99233.16;;;11.29;96.59
62942;BME280;49042;47.318;19.874;2024-02-23T00:49:28;99225.06;;;11.00;96.51
62942;BME280;49042;47.318;19.874;2024-02-23T00:52:30;99226.06;;;11.12;99.59
62942;BME280;49042;47.318;19.874;2024-02-23T00:55:32;99220.84;;;11.13;100.00
62942;BME280;49042;47.318;19.874;2024-02-23T00:58:33;99223.56;;;11.23;100.00
62942;BME280;49042;47.318;19.874;2024-02-23T01:01:35;99227.62;;;10.94;100.00
62942;BME280;49042;47.318;19.874;2024-02-23T01:04:37;99233.72;;;10.95;100.00
62942;BME280;49042;47.318;19.874;2024-02-23T01:07:38;99227.75;;;11.07;100.00
62942;BME280;49042;47.318;19.874;2024-02-23T01:10:40;99234.78;;;11.17;100.00
62942;BME280;49042;47.318;19.874;2024-02-23T01:13:42;99243.53;;;11.24;100.00
62942;BME280;49042;47.318;19.874;2024-02-23T01:16:44;99244.34;;;11.17;97.79
62942;BME280;49042;47.318;19.874;2024-02-23T01:19:46;99245.34;;;11.27;94.11
62942;BME280;49042;47.318;19.874;2024-02-23T01:22:47;99250.69;;;11.45;90.68
62942;BME280;49042;47.318;19.874;2024-02-23T01:25:49;99259.50;;;11.60;88.80
62942;BME280;49042;47.318;19.874;2024-02-23T01:28:51;99257.78;;;11.61;87.32
62942;BME280;49042;47.318;19.874;2024-02-23T01:31:53;99252.56;;;11.64;91.83
62942;BME280;49042;47.318;19.874;2024-02-23T01:34:56;99232.31;;;11.33;94.79
62942;BME280;49042;47.318;19.874;2024-02-23T01:37:58;99236.63;;;11.28;100.00
62942;BME280;49042;47.318;19.874;2024-02-23T01:41:00;99245.22;;;11.12;100.00
62942;BME280;49042;47.318;19.874;2024-02-23T01:44:02;99237.13;;;10.89;100.00
62942;BME280;49042;47.318;19.874;2024-02-23T01:47:04;99233.84;;;11.06;100.00
62942;BME280;49042;47.318;19.874;2024-02-23T01:50:06;99249.47;;;11.04;100.00
62942;BME280;49042;47.318;19.874;2024-02-23T01:53:11;99231.91;;;10.87;100.00
62942;BME280;49042;47.318;19.874;2024-02-23T01:56:14;99233.72;;;10.96;100.00
62942;BME280;49042;47.318;19.874;2024-02-23T01:59:21;99239.06;;;11.07;100.00
62942;BME280;49042;47.318;19.874;2024-02-23T02:02:23;99242.34;;;10.87;100.00
62942;BME280;49042;47.318;19.874;2024-02-23T02:05:25;99238.84;;;10.88;100.00
62942;BME280;49042;47.318;19.874;2024-02-23T02:08:27;99224.97;;;10.89;100.00
62942;BME280;49042;47.318;19.874;2024-02-23T02:11:29;99232.69;;;10.78;100.00
62942;BME280;49042;47.318;19.874;2024-02-23T02:14:30;99229.19;;;10.78;100.00
62942;BME280;49042;47.318;19.874;2024-02-23T02:17:34;99229.19;;;10.78;100.00
62942;BME280;49042;47.318;19.874;2024-02-23T02:20:43;99229.94;;;10.67;100.00
62942;BME280;49042;47.318;19.874;2024-02-23T02:23:50;99228.31;;;10.74;100.00
62942;BME280;49042;47.318;19.874;2024-02-23T02:26:51;99227.25;;;10.58;100.00
62942;BME280;49042;47.318;19.874;2024-02-23T02:29:53;99219.56;;;10.69;100.00
62942;BME280;49042;47.318;19.874;2024-02-23T02:32:55;99222.66;;;10.39;100.00
62942;BME280;49042;47.318;19.874;2024-02-23T02:35:56;99204.62;;;10.57;100.00
62942;BME280;49042;47.318;19.874;2024-02-23T02:38:58;99211.50;;;10.52;100.00
62942;BME280;49042;47.318;19.874;2024-02-23T02:42:00;99203.78;;;10.58;100.00
62942;BME280;49042;47.318;19.874;2024-02-23T02:45:02;99208.13;;;10.56;100.00
62942;BME280;49042;47.318;19.874;2024-02-23T02:48:05;99202.72;;;10.42;100.00
62942;BME280;49042;47.318;19.874;2024-02-23T02:51:07;99203.50;;;10.34;100.00
62942;BME280;49042;47.318;19.874;2024-02-23T02:54:08;99196.62;;;10.43;100.00
62942;BME280;49042;47.318;19.874;2024-02-23T02:57:10;99211.41;;;10.42;100.00
62942;BME280;49042;47.318;19.874;2024-02-23T03:00:12;99211.41;;;10.42;100.00
62942;BME280;49042;47.318;19.874;2024-02-23T03:03:14;99207.87;;;10.37;100.00
62942;BME280;49042;47.318;19.874;2024-02-23T03:06:16;99204.50;;;10.46;100.00
62942;BME280;49042;47.318;19.874;2024-02-23T03:09:17;99208.87;;;10.48;100.00
62942;BME280;49042;47.318;19.874;2024-02-23T03:12:19;99208.63;;;10.26;100.00
62942;BME280;49042;47.318;19.874;2024-02-23T03:15:21;99197.50;;;10.42;100.00
62942;BME280;49042;47.318;19.874;2024-02-23T03:18:23;99198.50;;;10.53;100.00
62942;BME280;49042;47.318;19.874;2024-02-23T03:21:25;99202.69;;;10.40;100.00
62942;BME280;49042;47.318;19.874;2024-02-23T03:24:26;99203.47;;;10.31;100.00
62942;BME280;49042;47.318;19.874;2024-02-23T03:27:28;99208.87;;;10.50;100.00
62942;BME280;49042;47.318;19.874;2024-02-23T03:30:33;99217.31;;;10.28;100.00
62942;BME280;49042;47.318;19.874;2024-02-23T03:33:37;99205.22;;;10.34;100.00
62942;BME280;49042;47.318;19.874;2024-02-23T03:36:39;99216.41;;;10.25;100.00
62942;BME280;49042;47.318;19.874;2024-02-23T03:39:41;99215.41;;;10.15;100.00
62942;BME280;49042;47.318;19.874;2024-02-23T03:42:43;99221.75;;;10.34;100.00
62942;BME280;49042;47.318;19.874;2024-02-23T03:45:44;99221.69;;;10.30;100.00
62942;BME280;49042;47.318;19.874;2024-02-23T03:48:46;99223.22;;;10.13;100.00
62942;BME280;49042;47.318;19.874;2024-02-23T03:51:48;99232.69;;;10.08;100.00
62942;BME280;49042;47.318;19.874;2024-02-23T03:54:49;99237.91;;;10.06;100.00
62942;BME280;49042;47.318;19.874;2024-02-23T03:57:53;99231.75;;;10.01;100.00
62942;BME280;49042;47.318;19.874;2024-02-23T04:00:55;99241.16;;;9.91;100.00
62942;BME280;49042;47.318;19.874;2024-02-23T04:03:56;99242.75;;;9.81;100.00
62942;BME280;49042;47.318;19.874;2024-02-23T04:06:58;99236.38;;;9.60;100.00
62942;BME280;49042;47.318;19.874;2024-02-23T04:10:00;99244.84;;;9.47;100.00
62942;BME280;49042;47.318;19.874;2024-02-23T04:13:02;99250.94;;;9.49;100.00
62942;BME280;49042;47.318;19.874;2024-02-23T04:16:04;99249.88;;;9.36;100.00
62942;BME280;49042;47.318;19.874;2024-02-23T04:19:05;99260.94;;;9.22;100.00
62942;BME280;49042;47.318;19.874;2024-02-23T04:22:09;99258.44;;;9.30;100.00
62942;BME280;49042;47.318;19.874;2024-02-23T04:25:14;99244.44;;;9.21;100.00
62942;BME280;49042;47.318;19.874;2024-02-23T04:28:15;99255.88;;;9.33;100.00
62942;BME280;49042;47.318;19.874;2024-02-23T04:31:17;99250.56;;;9.27;100.00
62942;BME280;49042;47.318;19.874;2024-02-23T04:34:19;99242.88;;;9.33;100.00
62942;BME280;49042;47.318;19.874;2024-02-23T04:37:21;99243.94;;;9.45;100.00
62942;BME280;49042;47.318;19.874;2024-02-23T04:40:22;99240.63;;;9.53;100.00
62942;BME280;49042;47.318;19.874;2024-02-23T04:43:24;99246.63;;;9.51;100.00
62942;BME280;49042;47.318;19.874;2024-02-23T04:46:26;99239.94;;;9.67;100.00
62942;BME280;49042;47.318;19.874;2024-02-23T04:49:28;99246.09;;;9.71;100.00
62942;BME280;49042;47.318;19.874;2024-02-23T04:52:30;99235.78;;;9.79;100.00
62942;BME280;49042;47.318;19.874;2024-02-23T04:55:32;99228.00;;;9.82;100.00
62942;BME280;49042;47.318;19.874;2024-02-23T04:58:33;99233.91;;;9.70;100.00
62942;BME280;49042;47.318;19.874;2024-02-23T05:01:36;99239.06;;;9.68;100.00
62942;BME280;49042;47.318;19.874;2024-02-23T05:04:38;99241.63;;;9.65;100.00
62942;BME280;49042;47.318;19.874;2024-02-23T05:07:40;99239.59;;;9.45;100.00
62942;BME280;49042;47.318;19.874;2024-02-23T05:10:42;99254.06;;;9.27;100.00
62942;BME280;49042;47.318;19.874;2024-02-23T05:13:44;99242.62;;;9.17;100.00
62942;BME280;49042;47.318;19.874;2024-02-23T05:16:46;99260.09;;;9.26;100.00
62942;BME280;49042;47.318;19.874;2024-02-23T05:19:47;99268.69;;;9.20;100.00
62942;BME280;49042;47.318;19.874;2024-02-23T05:22:49;99273.84;;;9.19;100.00
62942;BME280;49042;47.318;19.874;2024-02-23T05:25:51;99267.47;;;9.01;100.00
62942;BME280;49042;47.318;19.874;2024-02-23T05:28:53;99284.09;;;9.09;100.00
62942;BME280;49042;47.318;19.874;2024-02-23T05:31:55;99274.63;;;9.13;100.00
62942;BME280;49042;47.318;19.874;2024-02-23T05:34:57;99267.50;;;9.03;100.00
62942;BME280;49042;47.318;19.874;2024-02-23T05:37:59;99279.03;;;9.17;100.00
62942;BME280;49042;47.318;19.874;2024-02-23T05:41:01;99285.94;;;9.15;100.00
62942;BME280;49042;47.318;19.874;2024-02-23T05:44:03;99295.59;;;9.21;100.00
62942;BME280;49042;47.318;19.874;2024-02-23T05:47:07;99290.28;;;9.16;100.00
62942;BME280;49042;47.318;19.874;2024-02-23T05:50:09;99295.62;;;9.24;100.00
62942;BME280;49042;47.318;19.874;2024-02-23T05:53:11;99304.47;;;9.32;100.00
62942;BME280;49042;47.318;19.874;2024-02-23T05:56:12;99307.91;;;9.31;100.00
62942;BME280;49042;47.318;19.874;2024-02-23T05:59:14;99320.94;;;9.33;100.00
62942;BME280;49042;47.318;19.874;2024-02-23T06:02:16;99326.22;;;9.38;100.00
62942;BME280;49042;47.318;19.874;2024-02-23T06:05:18;99335.72;;;9.34;100.00
62942;BME280;49042;47.318;19.874;2024-02-23T06:08:20;99346.94;;;9.33;100.00
62942;BME280;49042;47.318;19.874;2024-02-23T06:11:21;99350.34;;;9.27;100.00
62942;BME280;49042;47.318;19.874;2024-02-23T06:14:23;99347.84;;;9.34;100.00
62942;BME280;49042;47.318;19.874;2024-02-23T06:17:25;99350.44;;;9.32;100.00
62942;BME280;49042;47.318;19.874;2024-02-23T06:20:27;99358.38;;;9.40;100.00
62942;BME280;49042;47.318;19.874;2024-02-23T06:23:29;99347.88;;;9.37;100.00
62942;BME280;49042;47.318;19.874;2024-02-23T06:26:31;99356.81;;;9.50;100.00
62942;BME280;49042;47.318;19.874;2024-02-23T06:29:33;99355.00;;;9.47;100.00
62942;BME280;49042;47.318;19.874;2024-02-23T06:32:35;99346.22;;;9.39;100.00
62942;BME280;49042;47.318;19.874;2024-02-23T06:35:37;99353.22;;;9.43;100.00
62942;BME280;49042;47.318;19.874;2024-02-23T06:38:39;99352.41;;;9.46;100.00
62942;BME280;49042;47.318;19.874;2024-02-23T06:41:41;99367.38;;;9.59;100.00
62942;BME280;49042;47.318;19.874;2024-02-23T06:44:43;99361.50;;;9.70;100.00
62942;BME280;49042;47.318;19.874;2024-02-23T06:47:45;99362.13;;;9.58;100.00
62942;BME280;49042;47.318;19.874;2024-02-23T06:50:46;99358.09;;;9.74;100.00
62942;BME280;49042;47.318;19.874;2024-02-23T06:53:48;99367.44;;;9.62;100.00
62942;BME280;49042;47.318;19.874;2024-02-23T06:56:50;99361.53;;;9.71;100.00
62942;BME280;49042;47.318;19.874;2024-02-23T06:59:52;99358.03;;;9.71;100.00
62942;BME280;49042;47.318;19.874;2024-02-23T07:02:54;99365.88;;;9.72;100.00
62942;BME280;49042;47.318;19.874;2024-02-23T07:05:56;99369.34;;;9.73;100.00
62942;BME280;49042;47.318;19.874;2024-02-23T07:08:57;99373.06;;;9.88;100.00
62942;BME280;49042;47.318;19.874;2024-02-23T07:12:00;99368.37;;;9.66;100.00
62942;BME280;49042;47.318;19.874;2024-02-23T07:15:02;99365.94;;;9.77;100.00
62942;BME280;49042;47.318;19.874;2024-02-23T07:18:04;99358.31;;;9.88;100.00
62942;BME280;49042;47.318;19.874;2024-02-23T07:21:06;99356.16;;;10.16;100.00
62942;BME280;49042;47.318;19.874;2024-02-23T07:24:08;99358.03;;;10.28;100.00
62942;BME280;49042;47.318;19.874;2024-02-23T07:27:09;99356.66;;;10.53;100.00
62942;BME280;49042;47.318;19.874;2024-02-23T07:30:12;99361.69;;;10.40;100.00
62942;BME280;49042;47.318;19.874;2024-02-23T07:33:14;99359.22;;;10.51;100.00
62942;BME280;49042;47.318;19.874;2024-02-23T07:36:17;99369.88;;;10.65;100.00
62942;BME280;49042;47.318;19.874;2024-02-23T07:39:19;99373.38;;;10.67;100.00
62942;BME280;49042;47.318;19.874;2024-02-23T07:42:21;99369.13;;;10.73;100.00
62942;BME280;49042;47.318;19.874;2024-02-23T07:45:23;99380.00;;;11.09;100.00
62942;BME280;49042;47.318;19.874;2024-02-23T07:48:24;99385.31;;;11.18;100.00
62942;BME280;49042;47.318;19.874;2024-02-23T07:51:26;99373.81;;;11.02;100.00
62942;BME280;49042;47.318;19.874;2024-02-23T07:54:28;99375.09;;;11.40;100.00
62942;BME280;49042;47.318;19.874;2024-02-23T07:57:30;99378.31;;;11.17;100.00
62942;BME280;49042;47.318;19.874;2024-02-23T08:00:33;99368.56;;;11.00;100.00
62942;BME280;49042;47.318;19.874;2024-02-23T08:03:36;99369.47;;;11.01;100.00
62942;BME280;49042;47.318;19.874;2024-02-23T08:06:41;99379.50;;;10.71;100.00
62942;BME280;49042;47.318;19.874;2024-02-23T08:09:44;99373.19;;;11.23;100.00
62942;BME280;49042;47.318;19.874;2024-02-23T08:12:46;99377.84;;;11.56;100.00
62942;BME280;49042;47.318;19.874;2024-02-23T08:15:48;99367.38;;;11.51;100.00
62942;BME280;49042;47.318;19.874;2024-02-23T08:18:50;99364.84;;;11.61;100.00
62942;BME280;49042;47.318;19.874;2024-02-23T08:21:51;99373.47;;;11.50;100.00
62942;BME280;49042;47.318;19.874;2024-02-23T08:24:53;99372.59;;;11.53;100.00
62942;BME280;49042;47.318;19.874;2024-02-23T08:27:56;99376.09;;;11.53;100.00
62942;BME280;49042;47.318;19.874;2024-02-23T08:30:57;99384.72;;;11.44;100.00
62942;BME280;49042;47.318;19.874;2024-02-23T08:33:59;99381.94;;;11.27;100.00
62942;BME280;49042;47.318;19.874;2024-02-23T08:37:01;99392.28;;;11.21;100.00
62942;BME280;49042;47.318;19.874;2024-02-23T08:40:03;99385.88;;;10.94;100.00
62942;BME280;49042;47.318;19.874;2024-02-23T08:43:05;99394.88;;;11.18;100.00
62942;BME280;49042;47.318;19.874;2024-02-23T08:46:07;99409.44;;;11.00;100.00
62942;BME280;49042;47.318;19.874;2024-02-23T08:49:11;99401.25;;;10.71;100.00
62942;BME280;49042;47.318;19.874;2024-02-23T08:52:13;99396.06;;;10.75;100.00
62942;BME280;49042;47.318;19.874;2024-02-23T08:55:15;99410.91;;;10.77;100.00
62942;BME280;49042;47.318;19.874;2024-02-23T08:58:17;99413.63;;;10.88;100.00
62942;BME280;49042;47.318;19.874;2024-02-23T09:01:19;99411.16;;;10.98;100.00
62942;BME280;49042;47.318;19.874;2024-02-23T09:04:21;99404.00;;;10.81;100.00
62942;BME280;49042;47.318;19.874;2024-02-23T09:07:23;99401.47;;;10.87;100.00
62942;BME280;49042;47.318;19.874;2024-02-23T09:10:26;99407.56;;;10.88;100.00
62942;BME280;49042;47.318;19.874;2024-02-23T09:13:27;99413.72;;;10.91;100.00
62942;BME280;49042;47.318;19.874;2024-02-23T09:16:31;99417.31;;;11.01;100.00
62942;BME280;49042;47.318;19.874;2024-02-23T09:19:33;99427.00;;;11.12;100.00
62942;BME280;49042;47.318;19.874;2024-02-23T09:22:35;99414.91;;;11.20;100.00
62942;BME280;49042;47.318;19.874;2024-02-23T09:25:38;99415.22;;;11.49;100.00
62942;BME280;49042;47.318;19.874;2024-02-23T09:28:44;99400.59;;;11.66;100.00
62942;BME280;49042;47.318;19.874;2024-02-23T09:31:47;99400.59;;;11.66;100.00
62942;BME280;49042;47.318;19.874;2024-02-23T09:34:49;99400.72;;;11.79;100.00
62942;BME280;49042;47.318;19.874;2024-02-23T09:37:50;99402.66;;;12.01;100.00
62942;BME280;49042;47.318;19.874;2024-02-23T09:40:52;99408.53;;;11.76;100.00
62942;BME280;49042;47.318;19.874;2024-02-23T09:43:56;99409.59;;;12.02;100.00
62942;BME280;49042;47.318;19.874;2024-02-23T09:47:00;99412.06;;;11.80;100.00
62942;BME280;49042;47.318;19.874;2024-02-23T09:50:10;99418.31;;;11.97;100.00
62942;BME280;49042;47.318;19.874;2024-02-23T09:53:13;99415.50;;;11.77;100.00
62942;BME280;49042;47.318;19.874;2024-02-23T09:56:17;99408.38;;;11.59;100.00
62942;BME280;49042;47.318;19.874;2024-02-23T09:59:20;99416.41;;;11.84;100.00
62942;BME280;49042;47.318;19.874;2024-02-23T10:02:22;99408.59;;;11.82;100.00
62942;BME280;49042;47.318;19.874;2024-02-23T10:05:29;99410.47;;;11.99;100.00
62942;BME280;49042;47.318;19.874;2024-02-23T10:08:37;99403.56;;;12.04;100.00
62942;BME280;49042;47.318;19.874;2024-02-23T10:11:39;99405.25;;;12.02;100.00
62942;BME280;49042;47.318;19.874;2024-02-23T10:14:41;99410.75;;;12.34;100.00
62942;BME280;49042;47.318;19.874;2024-02-23T10:17:43;99407.88;;;12.01;100.00
62942;BME280;49042;47.318;19.874;2024-02-23T10:20:47;99402.72;;;12.13;100.00
62942;BME280;49042;47.318;19.874;2024-02-23T10:23:49;99407.13;;;12.16;100.00
62942;BME280;49042;47.318;19.874;2024-02-23T10:26:52;99409.84;;;12.30;100.00
62942;BME280;49042;47.318;19.874;2024-02-23T10:29:54;99417.78;;;12.41;100.00
62942;BME280;49042;47.318;19.874;2024-02-23T10:32:57;99418.03;;;12.82;100.00
62942;BME280;49042;47.318;19.874;2024-02-23T10:36:00;99424.25;;;13.06;100.00
62942;BME280;49042;47.318;19.874;2024-02-23T10:39:02;99426.69;;;12.71;100.00
62942;BME280;49042;47.318;19.874;2024-02-23T10:42:09;99421.66;;;13.14;100.00
62942;BME280;49042;47.318;19.874;2024-02-23T10:45:11;99424.28;;;13.11;100.00
62942;BME280;49042;47.318;19.874;2024-02-23T10:48:15;99429.56;;;13.25;100.00
62942;BME280;49042;47.318;19.874;2024-02-23T10:51:17;99433.12;;;13.49;100.00
62942;BME280;49042;47.318;19.874;2024-02-23T10:54:22;99429.72;;;13.74;100.00
62942;BME280;49042;47.318;19.874;2024-02-23T10:57:24;99430.59;;;13.93;100.00
62942;BME280;49042;47.318;19.874;2024-02-23T11:00:26;99409.62;;;13.98;100.00
62942;BME280;49042;47.318;19.874;2024-02-23T11:03:32;99408.75;;;14.22;100.00
62942;BME280;49042;47.318;19.874;2024-02-23T11:06:34;99406.16;;;14.13;100.00
62942;BME280;49042;47.318;19.874;2024-02-23T11:09:36;99409.62;;;14.48;100.00
62942;BME280;49042;47.318;19.874;2024-02-23T11:12:38;99408.72;;;14.55;100.00
62942;BME280;49042;47.318;19.874;2024-02-23T11:15:42;99401.75;;;14.43;100.00
62942;BME280;49042;47.318;19.874;2024-02-23T11:18:44;99416.59;;;14.40;100.00
62942;BME280;49042;47.318;19.874;2024-02-23T11:21:52;99401.72;;;14.59;100.00
62942;BME280;49042;47.318;19.874;2024-02-23T11:24:59;99412.25;;;13.98;100.00
62942;BME280;49042;47.318;19.874;2024-02-23T11:28:01;99400.91;;;14.22;100.00
62942;BME280;49042;47.318;19.874;2024-02-23T11:31:11;99402.66;;;14.19;100.00
62942;BME280;49042;47.318;19.874;2024-02-23T11:34:13;99410.47;;;14.31;100.00
62942;BME280;49042;47.318;19.874;2024-02-23T11:37:23;99411.34;;;13.75;100.00
62942;BME280;49042;47.318;19.874;2024-02-23T11:40:28;99408.78;;;14.13;100.00
62942;BME280;49042;47.318;19.874;2024-02-23T11:43:34;99419.16;;;13.55;100.00
62942;BME280;49042;47.318;19.874;2024-02-23T11:46:36;99415.63;;;13.46;100.00
62942;BME280;49042;47.318;19.874;2024-02-23T11:49:37;99424.47;;;13.89;100.00
62942;BME280;49042;47.318;19.874;2024-02-23T11:52:39;99421.78;;;13.58;100.00
62942;BME280;49042;47.318;19.874;2024-02-23T11:55:41;99420.91;;;13.59;100.00
62942;BME280;49042;47.318;19.874;2024-02-23T11:58:43;99423.63;;;13.78;100.00
62942;BME280;49042;47.318;19.874;2024-02-23T12:01:46;99421.84;;;13.63;100.00
62942;BME280;49042;47.318;19.874;2024-02-23T12:04:51;99423.44;;;13.23;100.00
62942;BME280;49042;47.318;19.874;2024-02-23T12:07:53;99427.84;;;13.28;100.00
62942;BME280;49042;47.318;19.874;2024-02-23T12:10:55;99418.25;;;13.37;100.00
62942;BME280;49042;47.318;19.874;2024-02-23T12:13:57;99412.22;;;13.65;100.00
62942;BME280;49042;47.318;19.874;2024-02-23T12:17:02;99415.66;;;13.51;100.00
62942;BME280;49042;47.318;19.874;2024-02-23T12:20:07;99404.31;;;13.58;100.00
62942;BME280;49042;47.318;19.874;2024-02-23T12:23:09;99403.50;;;13.59;100.00
62942;BME280;49042;47.318;19.874;2024-02-23T12:26:18;99387.81;;;13.81;100.00
62942;BME280;49042;47.318;19.874;2024-02-23T12:29:20;99386.94;;;13.81;100.00
62942;BME280;49042;47.318;19.874;2024-02-23T12:32:22;99384.31;;;13.95;100.00
62942;BME280;49042;47.318;19.874;2024-02-23T12:35:24;99370.28;;;14.10;100.00
62942;BME280;49042;47.318;19.874;2024-02-23T12:38:26;99375.53;;;14.31;100.00
62942;BME280;49042;47.318;19.874;2024-02-23T12:41:28;99367.66;;;14.40;100.00
62942;BME280;49042;47.318;19.874;2024-02-23T12:44:30;99367.66;;;14.29;100.00
62942;BME280;49042;47.318;19.874;2024-02-23T12:47:31;99364.19;;;14.05;100.00
62942;BME280;49042;47.318;19.874;2024-02-23T12:50:33;99367.69;;;13.93;100.00
62942;BME280;49042;47.318;19.874;2024-02-23T12:53:40;99370.31;;;13.87;100.00
62942;BME280;49042;47.318;19.874;2024-02-23T12:56:42;99373.81;;;14.00;100.00
62942;BME280;49042;47.318;19.874;2024-02-23T12:59:44;99374.69;;;13.80;100.00
62942;BME280;49042;47.318;19.874;2024-02-23T13:02:46;99390.41;;;13.92;100.00
62942;BME280;49042;47.318;19.874;2024-02-23T13:05:48;99372.94;;;13.76;100.00
62942;BME280;49042;47.318;19.874;2024-02-23T13:08:50;99374.66;;;13.75;100.00
62942;BME280;49042;47.318;19.874;2024-02-23T13:11:52;99371.22;;;13.92;100.00
62942;BME280;49042;47.318;19.874;2024-02-23T13:14:54;99372.91;;;13.99;100.00
62942;BME280;49042;47.318;19.874;2024-02-23T13:17:56;99378.16;;;13.65;100.00
62942;BME280;49042;47.318;19.874;2024-02-23T13:20:58;99371.19;;;13.87;100.00
62942;BME280;49042;47.318;19.874;2024-02-23T13:24:00;99363.28;;;13.57;100.00
62942;BME280;49042;47.318;19.874;2024-02-23T13:27:02;99366.81;;;13.66;100.00
62942;BME280;49042;47.318;19.874;2024-02-23T13:30:04;99372.88;;;13.57;100.00
62942;BME280;49042;47.318;19.874;2024-02-23T13:33:08;99370.31;;;13.60;100.00
62942;BME280;49042;47.318;19.874;2024-02-23T13:36:12;99379.06;;;13.70;100.00
62942;BME280;49042;47.318;19.874;2024-02-23T13:39:14;99365.06;;;13.66;100.00
62942;BME280;49042;47.318;19.874;2024-02-23T13:42:16;99367.69;;;13.68;100.00
62942;BME280;49042;47.318;19.874;2024-02-23T13:45:18;99369.41;;;13.56;100.00
62942;BME280;49042;47.318;19.874;2024-02-23T13:48:20;99359.84;;;13.63;100.00
62942;BME280;49042;47.318;19.874;2024-02-23T13:51:22;99358.03;;;13.48;100.00
62942;BME280;49042;47.318;19.874;2024-02-23T13:54:23;99368.47;;;13.40;100.00
62942;BME280;49042;47.318;19.874;2024-02-23T13:57:26;99372.88;;;13.41;100.00
62942;BME280;49042;47.318;19.874;2024-02-23T14:00:27;99373.69;;;13.21;100.00
62942;BME280;49042;47.318;19.874;2024-02-23T14:03:29;99373.69;;;13.21;100.00
62942;BME280;49042;47.318;19.874;2024-02-23T14:06:32;99378.00;;;13.06;100.00
62942;BME280;49042;47.318;19.874;2024-02-23T14:09:33;99375.34;;;12.92;100.00
62942;BME280;49042;47.318;19.874;2024-02-23T14:12:35;99369.25;;;12.97;100.00
62942;BME280;49042;47.318;19.874;2024-02-23T14:15:37;99377.94;;;12.94;100.00
62942;BME280;49042;47.318;19.874;2024-02-23T14:18:39;99377.09;;;12.98;100.00
62942;BME280;49042;47.318;19.874;2024-02-23T14:21:44;99369.22;;;12.93;100.00
62942;BME280;49042;47.318;19.874;2024-02-23T14:24:45;99371.81;;;12.82;100.00
62942;BME280;49042;47.318;19.874;2024-02-23T14:27:47;99379.56;;;12.63;100.00
62942;BME280;49042;47.318;19.874;2024-02-23T14:30:49;99383.06;;;12.69;100.00
62942;BME280;49042;47.318;19.874;2024-02-23T14:33:51;99379.59;;;12.70;100.00
62942;BME280;49042;47.318;19.874;2024-02-23T14:36:53;99380.47;;;12.73;100.00
62942;BME280;49042;47.318;19.874;2024-02-23T14:39:55;99374.38;;;12.76;100.00
62942;BME280;49042;47.318;19.874;2024-02-23T14:42:57;99370.06;;;12.84;100.00
62942;BME280;49042;47.318;19.874;2024-02-23T14:45:59;99376.22;;;12.94;100.00
62942;BME280;49042;47.318;19.874;2024-02-23T14:49:01;99381.47;;;12.99;100.00
62942;BME280;49042;47.318;19.874;2024-02-23T14:52:03;99378.81;;;12.91;100.00
62942;BME280;49042;47.318;19.874;2024-02-23T14:55:06;99377.94;;;12.91;100.00
62942;BME280;49042;47.318;19.874;2024-02-23T14:58:07;99382.22;;;12.76;100.00
62942;BME280;49042;47.318;19.874;2024-02-23T15:01:09;99378.75;;;12.76;100.00
62942;BME280;49042;47.318;19.874;2024-02-23T15:04:11;99384.03;;;12.85;100.00
62942;BME280;49042;47.318;19.874;2024-02-23T15:07:15;99375.28;;;12.81;100.00
62942;BME280;49042;47.318;19.874;2024-02-23T15:10:17;99386.72;;;12.99;100.00
62942;BME280;49042;47.318;19.874;2024-02-23T15:13:19;99381.44;;;12.91;100.00
62942;BME280;49042;47.318;19.874;2024-02-23T15:16:21;99381.41;;;12.90;100.00
62942;BME280;49042;47.318;19.874;2024-02-23T15:19:22;99377.91;;;12.81;100.00
62942;BME280;49042;47.318;19.874;2024-02-23T15:22:24;99379.59;;;12.73;100.00
62942;BME280;49042;47.318;19.874;2024-02-23T15:25:27;99383.13;;;12.80;100.00
62942;BME280;49042;47.318;19.874;2024-02-23T15:28:29;99381.31;;;12.63;100.00
62942;BME280;49042;47.318;19.874;2024-02-23T15:31:31;99385.59;;;12.55;100.00
62942;BME280;49042;47.318;19.874;2024-02-23T15:34:33;99392.53;;;12.48;100.00
62942;BME280;49042;47.318;19.874;2024-02-23T15:37:35;99384.69;;;12.45;100.00
62942;BME280;49042;47.318;19.874;2024-02-23T15:40:37;99393.38;;;12.39;100.00
62942;BME280;49042;47.318;19.874;2024-02-23T15:43:38;99389.00;;;12.36;100.00